createdAt,value
2016-03-18T00:00:04.850Z,0
2016-03-18T00:01:04.867Z,0
2016-03-18T00:02:04.856Z,0
2016-03-18T00:03:04.858Z,0
2016-03-18T00:04:04.875Z,0
2016-03-18T00:05:04.847Z,0
2016-03-18T00:06:04.850Z,0
2016-03-18T00:07:04.717Z,0
2016-03-18T00:08:04.846Z,0
2016-03-18T00:09:04.848Z,0
2016-03-18T00:10:04.835Z,0
2016-03-18T00:11:04.823Z,0
2016-03-18T00:12:04.841Z,0
2016-03-18T00:13:04.844Z,0
2016-03-18T00:14:04.830Z,0
2016-03-18T00:15:04.833Z,0
2016-03-18T00:16:04.836Z,0
2016-03-18T00:17:04.823Z,0
2016-03-18T00:18:04.825Z,0
2016-03-18T00:19:04.827Z,0
2016-03-18T00:20:04.816Z,0
2016-03-18T00:21:04.849Z,0
2016-03-18T00:22:04.664Z,0
2016-03-18T00:23:04.824Z,0
2016-03-18T00:24:04.810Z,0
2016-03-18T00:25:04.813Z,0
2016-03-18T00:26:04.800Z,0
2016-03-18T00:27:04.818Z,0
2016-03-18T00:28:04.821Z,0
2016-03-18T00:29:04.652Z,0
2016-03-18T00:30:04.826Z,0
2016-03-18T00:31:04.800Z,0
2016-03-18T00:32:04.817Z,0
2016-03-18T00:33:04.805Z,0
2016-03-18T00:34:04.791Z,0
2016-03-18T00:35:04.794Z,0
2016-03-18T00:36:04.797Z,0
2016-03-18T00:37:04.972Z,0
2016-03-18T00:38:04.787Z,0
2016-03-18T00:39:04.805Z,0
2016-03-18T00:40:04.792Z,0
2016-03-18T00:41:04.795Z,0
2016-03-18T00:42:04.797Z,0
2016-03-18T00:43:04.784Z,0
2016-03-18T00:44:04.787Z,0
2016-03-18T00:45:04.789Z,0
2016-03-18T00:46:04.808Z,0
2016-03-18T00:47:04.779Z,0
2016-03-18T00:48:04.767Z,0
2016-03-18T00:49:04.770Z,0
2016-03-18T00:50:04.772Z,0
2016-03-18T00:51:04.775Z,0
2016-03-18T00:52:04.620Z,0
2016-03-18T00:53:04.780Z,0
2016-03-18T00:54:04.767Z,0
2016-03-18T00:55:04.769Z,0
2016-03-18T00:56:04.773Z,0
2016-03-18T00:57:04.603Z,0
2016-03-18T00:58:04.762Z,0
2016-03-18T00:59:04.765Z,0
2016-03-18T01:00:04.753Z,0
2016-03-18T01:01:04.755Z,0
2016-03-18T01:02:04.758Z,0
2016-03-18T01:03:04.760Z,0
2016-03-18T01:04:04.747Z,0
2016-03-18T01:05:04.766Z,0
2016-03-18T01:06:04.737Z,0
2016-03-18T01:07:04.854Z,0
2016-03-18T01:08:04.762Z,0
2016-03-18T01:09:04.749Z,0
2016-03-18T01:10:04.737Z,0
2016-03-18T01:11:04.583Z,0
2016-03-18T01:12:04.602Z,0
2016-03-18T01:13:04.745Z,0
2016-03-18T01:14:04.748Z,0
2016-03-18T01:15:04.735Z,0
2016-03-18T01:16:04.737Z,0
2016-03-18T01:17:04.756Z,0
2016-03-18T01:18:04.711Z,0
2016-03-18T01:19:04.730Z,0
2016-03-18T01:20:04.733Z,0
2016-03-18T01:21:04.736Z,0
2016-03-18T01:22:04.784Z,0
2016-03-18T01:23:04.741Z,0
2016-03-18T01:24:04.728Z,0
2016-03-18T01:25:04.714Z,0
2016-03-18T01:26:04.717Z,0
2016-03-18T01:27:04.720Z,0
2016-03-18T01:28:04.722Z,0
2016-03-18T01:29:04.725Z,0
2016-03-18T01:30:04.727Z,0
2016-03-18T01:31:04.715Z,0
2016-03-18T01:32:04.718Z,0
2016-03-18T01:33:04.720Z,0
2016-03-18T01:34:04.708Z,0
2016-03-18T01:35:04.694Z,0
2016-03-18T01:36:04.713Z,0
2016-03-18T01:37:04.637Z,0
2016-03-18T01:38:04.702Z,0
2016-03-18T01:39:04.690Z,0
2016-03-18T01:40:04.693Z,0
2016-03-18T01:41:04.726Z,0
2016-03-18T01:42:04.713Z,0
2016-03-18T01:43:04.685Z,0
2016-03-18T01:44:04.718Z,0
2016-03-18T01:45:04.690Z,0
2016-03-18T01:46:04.692Z,0
2016-03-18T01:47:04.711Z,0
2016-03-18T01:48:04.683Z,0
2016-03-18T01:49:04.669Z,0
2016-03-18T01:50:04.735Z,0
2016-03-18T01:51:04.722Z,0
2016-03-18T01:52:04.694Z,0
2016-03-18T01:53:04.681Z,0
2016-03-18T01:54:04.683Z,0
2016-03-18T01:55:04.686Z,0
2016-03-18T01:56:04.704Z,0
2016-03-18T01:57:04.661Z,0
2016-03-18T01:58:04.678Z,0
2016-03-18T01:59:04.681Z,0
2016-03-18T02:00:04.668Z,0
2016-03-18T02:01:04.686Z,0
2016-03-18T02:02:04.705Z,0
2016-03-18T02:03:04.661Z,0
2016-03-18T02:04:04.663Z,0
2016-03-18T02:05:04.666Z,0
2016-03-18T02:06:04.669Z,0
2016-03-18T02:07:04.641Z,0
2016-03-18T02:08:04.674Z,0
2016-03-18T02:09:04.646Z,0
2016-03-18T02:10:04.648Z,0
2016-03-18T02:11:04.666Z,0
2016-03-18T02:12:04.653Z,0
2016-03-18T02:13:04.641Z,0
2016-03-18T02:14:04.659Z,0
2016-03-18T02:15:04.631Z,0
2016-03-18T02:16:04.618Z,0
2016-03-18T02:17:04.652Z,0
2016-03-18T02:18:04.639Z,0
2016-03-18T02:19:04.625Z,0
2016-03-18T02:20:04.644Z,0
2016-03-18T02:21:04.631Z,0
2016-03-18T02:22:04.634Z,0
2016-03-18T02:23:04.637Z,0
2016-03-18T02:24:04.623Z,0
2016-03-18T02:25:04.657Z,0
2016-03-18T02:26:04.628Z,0
2016-03-18T02:27:04.616Z,0
2016-03-18T02:28:04.619Z,0
2016-03-18T02:29:04.621Z,0
2016-03-18T02:30:04.608Z,0
2016-03-18T02:31:04.627Z,0
2016-03-18T02:32:04.613Z,0
2016-03-18T02:33:04.600Z,0
2016-03-18T02:34:04.619Z,0
2016-03-18T02:35:04.621Z,0
2016-03-18T02:36:04.641Z,0
2016-03-18T02:37:04.611Z,0
2016-03-18T02:38:04.599Z,0
2016-03-18T02:39:03.896Z,0
2016-03-18T02:40:04.615Z,0
2016-03-18T02:41:04.473Z,0
2016-03-18T02:42:04.600Z,0
2016-03-18T02:43:05.354Z,0
2016-03-18T02:44:04.591Z,0
2016-03-18T02:45:04.609Z,0
2016-03-18T02:46:04.581Z,0
2016-03-18T02:47:04.598Z,0
2016-03-18T02:48:04.587Z,0
2016-03-18T02:49:04.604Z,0
2016-03-18T02:50:04.560Z,0
2016-03-18T02:51:04.563Z,0
2016-03-18T02:52:04.660Z,0
2016-03-18T02:53:04.553Z,0
2016-03-18T02:54:04.571Z,0
2016-03-18T02:55:04.559Z,0
2016-03-18T02:56:04.545Z,0
2016-03-18T02:57:04.533Z,0
2016-03-18T02:58:04.566Z,0
2016-03-18T02:59:04.538Z,0
2016-03-18T03:00:04.555Z,0
2016-03-18T03:01:04.524Z,0
2016-03-18T03:02:04.546Z,0
2016-03-18T03:03:04.530Z,0
2016-03-18T03:04:04.532Z,0
2016-03-18T03:05:04.535Z,0
2016-03-18T03:06:04.539Z,0
2016-03-18T03:07:04.510Z,0
2016-03-18T03:08:04.544Z,0
2016-03-18T03:09:04.530Z,0
2016-03-18T03:10:04.518Z,0
2016-03-18T03:11:04.520Z,0
2016-03-18T03:12:04.524Z,0
2016-03-18T03:13:04.526Z,0
2016-03-18T03:14:04.529Z,0
2016-03-18T03:15:04.515Z,0
2016-03-18T03:16:04.518Z,0
2016-03-18T03:17:04.520Z,0
2016-03-18T03:18:04.508Z,0
2016-03-18T03:19:04.510Z,0
2016-03-18T03:20:04.498Z,0
2016-03-18T03:21:04.485Z,0
2016-03-18T03:22:04.504Z,0
2016-03-18T03:23:04.334Z,0
2016-03-18T03:24:04.540Z,0
2016-03-18T03:25:04.480Z,0
2016-03-18T03:26:04.498Z,0
2016-03-18T03:27:04.501Z,0
2016-03-18T03:28:04.503Z,0
2016-03-18T03:29:04.475Z,0
2016-03-18T03:30:04.494Z,0
2016-03-18T03:31:04.464Z,0
2016-03-18T03:32:04.499Z,0
2016-03-18T03:33:04.502Z,0
2016-03-18T03:34:04.457Z,0
2016-03-18T03:35:04.476Z,0
2016-03-18T03:36:04.494Z,0
2016-03-18T03:37:04.481Z,0
2016-03-18T03:38:04.483Z,0
2016-03-18T03:39:04.471Z,0
2016-03-18T03:40:04.473Z,0
2016-03-18T03:41:04.460Z,0
2016-03-18T03:42:04.463Z,0
2016-03-18T03:43:04.466Z,0
2016-03-18T03:44:04.452Z,0
2016-03-18T03:45:04.455Z,0
2016-03-18T03:46:04.458Z,0
2016-03-18T03:47:04.446Z,0
2016-03-18T03:48:04.479Z,0
2016-03-18T03:49:04.435Z,0
2016-03-18T03:50:04.438Z,0
2016-03-18T03:51:04.472Z,0
2016-03-18T03:52:04.428Z,0
2016-03-18T03:53:04.446Z,0
2016-03-18T03:54:04.448Z,0
2016-03-18T03:55:04.451Z,0
2016-03-18T03:56:04.454Z,0
2016-03-18T03:57:04.425Z,0
2016-03-18T03:58:04.444Z,0
2016-03-18T03:59:04.446Z,0
2016-03-18T04:00:04.433Z,0
2016-03-18T04:01:04.436Z,0
2016-03-18T04:02:04.439Z,0
2016-03-18T04:03:04.411Z,0
2016-03-18T04:04:04.413Z,0
2016-03-18T04:05:04.291Z,0
2016-03-18T04:06:04.419Z,0
2016-03-18T04:07:04.405Z,0
2016-03-18T04:08:04.415Z,0
2016-03-18T04:09:04.402Z,0
2016-03-18T04:10:04.436Z,0
2016-03-18T04:11:04.392Z,0
2016-03-18T04:12:04.395Z,0
2016-03-18T04:13:04.412Z,0
2016-03-18T04:14:04.415Z,0
2016-03-18T04:15:04.403Z,0
2016-03-18T04:16:04.421Z,0
2016-03-18T04:17:04.251Z,0
2016-03-18T04:18:04.379Z,0
2016-03-18T04:19:04.428Z,0
2016-03-18T04:20:04.369Z,0
2016-03-18T04:21:04.372Z,0
2016-03-18T04:22:04.421Z,0
2016-03-18T04:23:04.392Z,0
2016-03-18T04:24:04.363Z,0
2016-03-18T04:25:04.397Z,0
2016-03-18T04:26:04.385Z,0
2016-03-18T04:27:04.372Z,0
2016-03-18T04:28:04.374Z,0
2016-03-18T04:29:04.238Z,0
2016-03-18T04:30:04.365Z,0
2016-03-18T04:31:04.352Z,0
2016-03-18T04:32:04.385Z,0
2016-03-18T04:33:04.373Z,0
2016-03-18T04:34:04.343Z,0
2016-03-18T04:35:04.362Z,0
2016-03-18T04:36:04.365Z,0
2016-03-18T04:37:04.352Z,0
2016-03-18T04:38:04.386Z,0
2016-03-18T04:39:04.373Z,0
2016-03-18T04:40:04.344Z,0
2016-03-18T04:41:04.348Z,0
2016-03-18T04:42:04.365Z,0
2016-03-18T04:43:04.353Z,0
2016-03-18T04:44:04.339Z,0
2016-03-18T04:45:04.359Z,0
2016-03-18T04:46:04.345Z,0
2016-03-18T04:47:04.332Z,0
2016-03-18T04:48:04.319Z,0
2016-03-18T04:49:04.322Z,0
2016-03-18T04:50:04.340Z,0
2016-03-18T04:51:04.343Z,0
2016-03-18T04:52:04.345Z,0
2016-03-18T04:53:04.348Z,0
2016-03-18T04:54:04.335Z,0
2016-03-18T04:55:04.307Z,0
2016-03-18T04:56:04.310Z,0
2016-03-18T04:57:04.344Z,0
2016-03-18T04:58:04.315Z,0
2016-03-18T04:59:04.318Z,0
2016-03-18T05:00:04.305Z,0
2016-03-18T05:01:04.339Z,0
2016-03-18T05:02:04.294Z,0
2016-03-18T05:03:04.296Z,0
2016-03-18T05:04:04.143Z,0
2016-03-18T05:05:04.302Z,0
2016-03-18T05:06:04.290Z,0
2016-03-18T05:07:04.323Z,0
2016-03-18T05:08:04.326Z,0
2016-03-18T05:09:04.297Z,0
2016-03-18T05:10:04.315Z,0
2016-03-18T05:11:04.287Z,0
2016-03-18T05:12:04.290Z,0
2016-03-18T05:13:04.292Z,0
2016-03-18T05:14:04.280Z,0
2016-03-18T05:15:04.298Z,0
2016-03-18T05:16:04.285Z,0
2016-03-18T05:17:04.288Z,0
2016-03-18T05:18:04.306Z,0
2016-03-18T05:19:04.293Z,0
2016-03-18T05:20:04.265Z,0
2016-03-18T05:21:04.111Z,0
2016-03-18T05:22:04.286Z,0
2016-03-18T05:23:04.147Z,0
2016-03-18T05:24:04.260Z,0
2016-03-18T05:25:04.263Z,0
2016-03-18T05:26:04.249Z,0
2016-03-18T05:27:04.252Z,0
2016-03-18T05:28:04.270Z,0
2016-03-18T05:29:04.241Z,5
2016-03-18T05:30:04.244Z,5
2016-03-18T05:31:04.279Z,5
2016-03-18T05:32:04.249Z,5
2016-03-18T05:33:04.237Z,5
2016-03-18T05:34:04.271Z,5
2016-03-18T05:35:04.227Z,5
2016-03-18T05:36:04.214Z,5
2016-03-18T05:37:04.249Z,10
2016-03-18T05:38:04.032Z,10
2016-03-18T05:39:04.222Z,10
2016-03-18T05:40:04.240Z,10
2016-03-18T05:41:04.226Z,10
2016-03-18T05:42:04.245Z,15
2016-03-18T05:43:04.201Z,15
2016-03-18T05:44:04.251Z,15
2016-03-18T05:45:04.067Z,15
2016-03-18T05:46:04.240Z,20
2016-03-18T05:47:04.212Z,20
2016-03-18T05:48:04.214Z,20
2016-03-18T05:49:04.218Z,25
2016-03-18T05:50:04.220Z,25
2016-03-18T05:51:04.208Z,25
2016-03-18T05:52:04.225Z,30
2016-03-18T05:53:04.275Z,30
2016-03-18T05:54:04.216Z,30
2016-03-18T05:55:04.187Z,30
2016-03-18T05:56:04.189Z,35
2016-03-18T05:57:04.208Z,35
2016-03-18T05:58:04.242Z,40
2016-03-18T05:59:04.198Z,35
2016-03-18T06:00:04.185Z,40
2016-03-18T06:01:04.187Z,45
2016-03-18T06:02:04.190Z,45
2016-03-18T06:03:04.193Z,45
2016-03-18T06:04:04.180Z,45
2016-03-18T06:05:04.182Z,45
2016-03-18T06:06:04.169Z,50
2016-03-18T06:07:04.187Z,55
2016-03-18T06:08:04.284Z,55
2016-03-18T06:09:04.177Z,55
2016-03-18T06:10:04.180Z,55
2016-03-18T06:11:04.026Z,60
2016-03-18T06:12:04.185Z,60
2016-03-18T06:13:04.220Z,60
2016-03-18T06:14:04.191Z,65
2016-03-18T06:15:04.162Z,65
2016-03-18T06:16:04.165Z,65
2016-03-18T06:17:04.153Z,75
2016-03-18T06:18:04.171Z,75
2016-03-18T06:19:04.158Z,80
2016-03-18T06:20:04.144Z,80
2016-03-18T06:21:04.163Z,85
2016-03-18T06:22:04.134Z,85
2016-03-18T06:23:03.950Z,90
2016-03-18T06:24:04.186Z,90
2016-03-18T06:25:04.189Z,95
2016-03-18T06:26:04.145Z,95
2016-03-18T06:27:04.164Z,100
2016-03-18T06:28:04.150Z,110
2016-03-18T06:29:04.138Z,120
2016-03-18T06:30:04.140Z,125
2016-03-18T06:31:04.144Z,140
2016-03-18T06:32:04.146Z,145
2016-03-18T06:33:04.133Z,145
2016-03-18T06:34:04.135Z,155
2016-03-18T06:35:04.138Z,160
2016-03-18T06:36:04.141Z,165
2016-03-18T06:37:04.144Z,165
2016-03-18T06:38:04.193Z,165
2016-03-18T06:39:04.133Z,165
2016-03-18T06:40:04.121Z,165
2016-03-18T06:41:03.982Z,165
2016-03-18T06:42:04.126Z,175
2016-03-18T06:43:04.112Z,170
2016-03-18T06:44:04.132Z,180
2016-03-18T06:45:04.134Z,190
2016-03-18T06:46:04.137Z,190
2016-03-18T06:47:04.139Z,190
2016-03-18T06:48:04.157Z,195
2016-03-18T06:49:04.145Z,200
2016-03-18T06:50:04.132Z,205
2016-03-18T06:51:05.228Z,220
2016-03-18T06:52:04.122Z,225
2016-03-18T06:53:04.171Z,240
2016-03-18T06:54:04.128Z,235
2016-03-18T06:55:04.130Z,235
2016-03-18T06:56:04.133Z,240
2016-03-18T06:57:04.139Z,240
2016-03-18T06:58:04.099Z,255
2016-03-18T06:59:04.089Z,260
2016-03-18T07:00:04.079Z,265
2016-03-18T07:01:04.070Z,275
2016-03-18T07:02:04.083Z,280
2016-03-18T07:03:04.066Z,285
2016-03-18T07:04:04.064Z,290
2016-03-18T07:05:04.062Z,285
2016-03-18T07:06:04.045Z,295
2016-03-18T07:07:04.062Z,295
2016-03-18T07:08:04.063Z,305
2016-03-18T07:09:04.065Z,315
2016-03-18T07:10:03.894Z,310
2016-03-18T07:11:04.051Z,320
2016-03-18T07:12:04.053Z,320
2016-03-18T07:13:04.056Z,325
2016-03-18T07:14:04.058Z,315
2016-03-18T07:15:04.060Z,330
2016-03-18T07:16:04.047Z,335
2016-03-18T07:17:04.064Z,325
2016-03-18T07:18:04.052Z,335
2016-03-18T07:19:04.069Z,345
2016-03-18T07:20:04.071Z,355
2016-03-18T07:21:04.073Z,355
2016-03-18T07:22:04.077Z,355
2016-03-18T07:23:04.095Z,350
2016-03-18T07:24:04.067Z,345
2016-03-18T07:25:04.053Z,355
2016-03-18T07:26:04.087Z,370
2016-03-18T07:27:04.075Z,370
2016-03-18T07:28:04.062Z,365
2016-03-18T07:29:04.065Z,390
2016-03-18T07:30:04.067Z,400
2016-03-18T07:31:04.069Z,405
2016-03-18T07:32:04.089Z,405
2016-03-18T07:33:04.091Z,395
2016-03-18T07:34:04.094Z,400
2016-03-18T07:35:04.111Z,425
2016-03-18T07:36:04.114Z,420
2016-03-18T07:37:04.117Z,430
2016-03-18T07:38:04.120Z,435
2016-03-18T07:39:04.122Z,445
2016-03-18T07:40:04.110Z,460
2016-03-18T07:41:04.112Z,465
2016-03-18T07:42:04.130Z,465
2016-03-18T07:43:04.133Z,480
2016-03-18T07:44:04.120Z,495
2016-03-18T07:45:04.123Z,500
2016-03-18T07:46:04.126Z,485
2016-03-18T07:47:04.128Z,490
2016-03-18T07:48:04.132Z,475
2016-03-18T07:49:04.149Z,470
2016-03-18T07:50:04.137Z,470
2016-03-18T07:51:04.154Z,420
2016-03-18T07:52:04.157Z,455
2016-03-18T07:53:04.145Z,490
2016-03-18T07:54:04.162Z,465
2016-03-18T07:55:04.197Z,460
2016-03-18T07:56:04.168Z,450
2016-03-18T07:57:04.171Z,480
2016-03-18T07:58:04.174Z,480
2016-03-18T07:59:04.192Z,475
2016-03-18T08:00:04.178Z,465
2016-03-18T08:01:04.198Z,475
2016-03-18T08:02:04.184Z,460
2016-03-18T08:03:04.187Z,405
2016-03-18T08:04:04.206Z,300
2016-03-18T08:05:04.208Z,235
2016-03-18T08:06:04.227Z,225
2016-03-18T08:07:04.197Z,220
2016-03-18T08:08:04.264Z,215
2016-03-18T08:09:04.235Z,215
2016-03-18T08:10:04.252Z,215
2016-03-18T08:11:04.224Z,215
2016-03-18T08:12:04.258Z,210
2016-03-18T08:13:04.245Z,210
2016-03-18T08:14:04.263Z,210
2016-03-18T08:15:04.251Z,210
2016-03-18T08:16:04.284Z,205
2016-03-18T08:17:04.257Z,205
2016-03-18T08:18:04.274Z,205
2016-03-18T08:19:04.293Z,200
2016-03-18T08:20:04.279Z,200
2016-03-18T08:21:04.298Z,200
2016-03-18T08:22:04.285Z,200
2016-03-18T08:23:04.287Z,200
2016-03-18T08:24:04.290Z,200
2016-03-18T08:25:04.309Z,200
2016-03-18T08:26:04.311Z,200
2016-03-18T08:27:04.299Z,200
2016-03-18T08:28:04.364Z,200
2016-03-18T08:29:04.319Z,200
2016-03-18T08:30:04.354Z,200
2016-03-18T08:31:04.356Z,200
2016-03-18T08:32:04.328Z,200
2016-03-18T08:33:04.361Z,195
2016-03-18T08:34:04.364Z,195
2016-03-18T08:35:04.350Z,195
2016-03-18T08:36:04.386Z,195
2016-03-18T08:37:04.372Z,195
2016-03-18T08:38:04.359Z,190
2016-03-18T08:39:04.377Z,190
2016-03-18T08:40:04.380Z,190
2016-03-18T08:41:04.383Z,190
2016-03-18T08:42:04.401Z,185
2016-03-18T08:43:04.404Z,185
2016-03-18T08:44:04.407Z,185
2016-03-18T08:45:04.425Z,185
2016-03-18T08:46:04.413Z,185
2016-03-18T08:47:04.446Z,185
2016-03-18T08:48:04.448Z,180
2016-03-18T08:49:04.421Z,180
2016-03-18T08:50:04.470Z,180
2016-03-18T08:51:04.456Z,180
2016-03-18T08:52:04.444Z,180
2016-03-18T08:53:04.446Z,180
2016-03-18T08:54:04.465Z,180
2016-03-18T08:55:04.452Z,175
2016-03-18T08:56:04.470Z,175
2016-03-18T08:57:04.472Z,175
2016-03-18T08:58:04.476Z,175
2016-03-18T08:59:04.337Z,175
2016-03-18T09:00:04.480Z,170
2016-03-18T09:01:04.499Z,170
2016-03-18T09:02:04.548Z,170
2016-03-18T09:03:04.520Z,170
2016-03-18T09:04:04.508Z,165
2016-03-18T09:05:04.494Z,165
2016-03-18T09:06:04.544Z,165
2016-03-18T09:07:04.516Z,165
2016-03-18T09:08:04.564Z,165
2016-03-18T09:09:04.396Z,165
2016-03-18T09:10:04.569Z,160
2016-03-18T09:11:04.558Z,160
2016-03-18T09:12:04.575Z,160
2016-03-18T09:13:04.563Z,160
2016-03-18T09:14:04.566Z,155
2016-03-18T09:15:04.552Z,155
2016-03-18T09:16:04.618Z,155
2016-03-18T09:17:04.574Z,155
2016-03-18T09:18:04.607Z,155
2016-03-18T09:19:04.594Z,155
2016-03-18T09:20:04.581Z,155
2016-03-18T09:21:04.584Z,155
2016-03-18T09:22:04.665Z,150
2016-03-18T09:23:04.605Z,150
2016-03-18T09:24:04.670Z,150
2016-03-18T09:25:04.626Z,150
2016-03-18T09:26:04.832Z,150
2016-03-18T09:27:04.615Z,150
2016-03-18T09:28:04.650Z,150
2016-03-18T09:29:04.637Z,145
2016-03-18T09:30:04.640Z,145
2016-03-18T09:31:04.642Z,145
2016-03-18T09:32:04.645Z,145
2016-03-18T09:33:04.648Z,140
2016-03-18T09:34:05.119Z,140
2016-03-18T09:35:04.716Z,140
2016-03-18T09:36:04.671Z,140
2016-03-18T09:37:04.675Z,140
2016-03-18T09:38:04.692Z,135
2016-03-18T09:39:04.695Z,135
2016-03-18T09:40:04.729Z,135
2016-03-18T09:41:04.747Z,135
2016-03-18T09:42:04.703Z,135
2016-03-18T09:43:04.721Z,135
2016-03-18T09:44:04.724Z,135
2016-03-18T09:45:04.727Z,130
2016-03-18T09:46:04.713Z,130
2016-03-18T09:47:04.733Z,130
2016-03-18T09:48:04.719Z,130
2016-03-18T09:49:04.768Z,130
2016-03-18T09:50:04.757Z,130
2016-03-18T09:51:04.743Z,130
2016-03-18T09:52:04.745Z,130
2016-03-18T09:53:04.765Z,130
2016-03-18T09:54:04.798Z,130
2016-03-18T09:55:04.801Z,125
2016-03-18T09:56:04.773Z,125
2016-03-18T09:57:04.790Z,125
2016-03-18T09:58:04.778Z,125
2016-03-18T09:59:04.795Z,125
2016-03-18T10:00:04.783Z,125
2016-03-18T10:01:04.785Z,125
2016-03-18T10:02:04.866Z,125
2016-03-18T10:03:04.822Z,125
2016-03-18T10:04:04.825Z,120
2016-03-18T10:05:04.811Z,120
2016-03-18T10:06:04.831Z,120
2016-03-18T10:07:04.833Z,120
2016-03-18T10:08:04.835Z,120
2016-03-18T10:09:04.917Z,120
2016-03-18T10:10:04.841Z,120
2016-03-18T10:11:04.844Z,120
2016-03-18T10:12:04.847Z,120
2016-03-18T10:13:04.849Z,120
2016-03-18T10:14:04.852Z,120
2016-03-18T10:15:04.854Z,120
2016-03-18T10:16:04.872Z,120
2016-03-18T10:17:04.860Z,115
2016-03-18T10:18:04.862Z,115
2016-03-18T10:19:04.881Z,115
2016-03-18T10:20:04.883Z,115
2016-03-18T10:21:04.886Z,115
2016-03-18T10:22:04.888Z,115
2016-03-18T10:23:04.876Z,115
2016-03-18T10:24:04.768Z,115
2016-03-18T10:25:04.771Z,115
2016-03-18T10:26:04.743Z,110
2016-03-18T10:27:04.917Z,110
2016-03-18T10:28:04.921Z,110
2016-03-18T10:29:04.782Z,110
2016-03-18T10:30:04.989Z,110
2016-03-18T10:31:04.912Z,110
2016-03-18T10:32:04.947Z,110
2016-03-18T10:33:04.933Z,110
2016-03-18T10:34:04.968Z,110
2016-03-18T10:35:04.971Z,110
2016-03-18T10:36:04.958Z,110
2016-03-18T10:37:04.961Z,110
2016-03-18T10:38:04.963Z,105
2016-03-18T10:39:05.013Z,105
2016-03-18T10:40:04.984Z,105
2016-03-18T10:41:04.986Z,105
2016-03-18T10:42:05.005Z,105
2016-03-18T10:43:04.992Z,105
2016-03-18T10:44:04.995Z,105
2016-03-18T10:45:04.982Z,105
2016-03-18T10:46:04.985Z,105
2016-03-18T10:47:04.987Z,105
2016-03-18T10:48:04.990Z,105
2016-03-18T10:49:05.008Z,105
2016-03-18T10:50:05.010Z,105
2016-03-18T10:51:04.999Z,100
2016-03-18T10:52:05.016Z,100
2016-03-18T10:53:05.018Z,100
2016-03-18T10:54:05.022Z,100
2016-03-18T10:55:05.024Z,100
2016-03-18T10:56:05.027Z,100
2016-03-18T10:57:05.030Z,100
2016-03-18T10:58:05.048Z,100
2016-03-18T10:59:05.035Z,100
2016-03-18T11:00:05.054Z,100
2016-03-18T11:01:05.040Z,100
2016-03-18T11:02:05.075Z,100
2016-03-18T11:03:05.046Z,100
2016-03-18T11:04:05.080Z,100
2016-03-18T11:05:05.067Z,100
2016-03-18T11:06:05.070Z,100
2016-03-18T11:07:05.103Z,100
2016-03-18T11:08:05.075Z,100
2016-03-18T11:09:05.094Z,100
2016-03-18T11:10:05.064Z,95
2016-03-18T11:11:05.083Z,95
2016-03-18T11:12:05.086Z,95
2016-03-18T11:13:05.088Z,95
2016-03-18T11:14:05.091Z,95
2016-03-18T11:15:05.094Z,95
2016-03-18T11:16:05.097Z,95
2016-03-18T11:17:05.099Z,95
2016-03-18T11:18:05.102Z,95
2016-03-18T11:19:05.121Z,95
2016-03-18T11:20:05.107Z,95
2016-03-18T11:21:05.141Z,95
2016-03-18T11:22:05.129Z,95
2016-03-18T11:23:05.100Z,95
2016-03-18T11:24:05.149Z,95
2016-03-18T11:25:05.137Z,95
2016-03-18T11:26:05.139Z,90
2016-03-18T11:27:05.142Z,90
2016-03-18T11:28:05.129Z,90
2016-03-18T11:29:05.148Z,90
2016-03-18T11:30:05.165Z,90
2016-03-18T11:31:05.136Z,90
2016-03-18T11:32:05.156Z,90
2016-03-18T11:33:05.158Z,90
2016-03-18T11:34:05.176Z,90
2016-03-18T11:35:05.163Z,90
2016-03-18T11:36:05.181Z,90
2016-03-18T11:37:05.184Z,90
2016-03-18T11:38:05.171Z,90
2016-03-18T11:39:05.174Z,90
2016-03-18T11:40:05.177Z,90
2016-03-18T11:41:05.195Z,90
2016-03-18T11:42:05.182Z,90
2016-03-18T11:43:05.200Z,90
2016-03-18T11:44:05.188Z,90
2016-03-18T11:45:05.206Z,90
2016-03-18T11:46:05.208Z,90
2016-03-18T11:47:05.211Z,90
2016-03-18T11:48:05.214Z,90
2016-03-18T11:49:05.216Z,90
2016-03-18T11:50:05.219Z,90
2016-03-18T11:51:05.206Z,90
2016-03-18T11:52:05.225Z,90
2016-03-18T11:53:05.212Z,85
2016-03-18T11:54:05.245Z,85
2016-03-18T11:55:05.248Z,85
2016-03-18T11:56:05.220Z,85
2016-03-18T11:57:05.238Z,85
2016-03-18T11:58:05.215Z,85
2016-03-18T11:59:05.264Z,85
2016-03-18T12:00:05.251Z,85
2016-03-18T12:01:05.237Z,85
2016-03-18T12:02:05.240Z,85
2016-03-18T12:03:05.290Z,85
2016-03-18T12:04:05.245Z,85
2016-03-18T12:05:05.264Z,85
2016-03-18T12:06:05.267Z,85
2016-03-18T12:07:05.270Z,85
2016-03-18T12:08:05.242Z,85
2016-03-18T12:09:05.275Z,85
2016-03-18T12:10:05.262Z,85
2016-03-18T12:11:05.264Z,85
2016-03-18T12:12:05.267Z,85
2016-03-18T12:13:05.286Z,80
2016-03-18T12:14:05.272Z,80
2016-03-18T12:15:05.291Z,80
2016-03-18T12:16:05.309Z,80
2016-03-18T12:17:05.281Z,80
2016-03-18T12:18:05.283Z,80
2016-03-18T12:19:05.302Z,80
2016-03-18T12:20:05.289Z,80
2016-03-18T12:21:05.323Z,80
2016-03-18T12:22:05.294Z,80
2016-03-18T12:23:05.329Z,80
2016-03-18T12:24:05.300Z,80
2016-03-18T12:25:05.302Z,80
2016-03-18T12:26:05.352Z,80
2016-03-18T12:27:05.339Z,80
2016-03-18T12:28:05.310Z,80
2016-03-18T12:29:05.329Z,80
2016-03-18T12:30:05.331Z,75
2016-03-18T12:31:05.303Z,75
2016-03-18T12:32:05.353Z,75
2016-03-18T12:33:05.340Z,75
2016-03-18T12:34:05.326Z,75
2016-03-18T12:35:05.329Z,75
2016-03-18T12:36:05.332Z,75
2016-03-18T12:37:05.351Z,75
2016-03-18T12:38:05.337Z,75
2016-03-18T12:39:05.372Z,75
2016-03-18T12:40:05.358Z,75
2016-03-18T12:41:05.345Z,75
2016-03-18T12:42:05.348Z,75
2016-03-18T12:43:05.398Z,75
2016-03-18T12:44:05.354Z,75
2016-03-18T12:45:05.372Z,75
2016-03-18T12:46:05.375Z,75
2016-03-18T12:47:05.393Z,75
2016-03-18T12:48:05.380Z,75
2016-03-18T12:49:05.399Z,75
2016-03-18T12:50:05.385Z,75
2016-03-18T12:51:05.419Z,75
2016-03-18T12:52:05.407Z,75
2016-03-18T12:53:05.410Z,75
2016-03-18T12:54:05.396Z,75
2016-03-18T12:55:05.399Z,75
2016-03-18T12:56:05.401Z,75
2016-03-18T12:57:05.420Z,75
2016-03-18T12:58:05.407Z,70
2016-03-18T12:59:05.394Z,70
2016-03-18T13:00:05.412Z,70
2016-03-18T13:01:05.399Z,70
2016-03-18T13:02:05.433Z,70
2016-03-18T13:03:05.420Z,70
2016-03-18T13:04:05.406Z,70
2016-03-18T13:05:05.457Z,70
2016-03-18T13:06:05.412Z,70
2016-03-18T13:07:05.290Z,70
2016-03-18T13:08:05.434Z,70
2016-03-18T13:09:05.420Z,70
2016-03-18T13:10:05.424Z,70
2016-03-18T13:11:05.443Z,70
2016-03-18T13:12:05.445Z,70
2016-03-18T13:13:05.432Z,70
2016-03-18T13:14:05.451Z,70
2016-03-18T13:15:05.453Z,70
2016-03-18T13:16:05.472Z,70
2016-03-18T13:17:05.427Z,70
2016-03-18T13:18:05.461Z,70
2016-03-18T13:19:05.448Z,70
2016-03-18T13:20:05.467Z,70
2016-03-18T13:21:05.439Z,70
2016-03-18T13:22:05.442Z,70
2016-03-18T13:23:05.445Z,70
2016-03-18T13:24:05.447Z,70
2016-03-18T13:25:05.481Z,70
2016-03-18T13:26:05.483Z,70
2016-03-18T13:27:05.470Z,70
2016-03-18T13:28:05.473Z,70
2016-03-18T13:29:05.475Z,70
2016-03-18T13:30:05.478Z,70
2016-03-18T13:31:05.481Z,70
2016-03-18T13:32:05.499Z,70
2016-03-18T13:33:05.471Z,70
2016-03-18T13:34:05.349Z,70
2016-03-18T13:35:05.476Z,70
2016-03-18T13:36:05.510Z,70
2016-03-18T13:37:05.482Z,70
2016-03-18T13:38:05.500Z,70
2016-03-18T13:39:05.502Z,70
2016-03-18T13:40:05.427Z,65
2016-03-18T13:41:05.493Z,65
2016-03-18T13:42:05.510Z,65
2016-03-18T13:43:05.529Z,65
2016-03-18T13:44:05.516Z,65
2016-03-18T13:45:05.518Z,65
2016-03-18T13:46:05.521Z,65
2016-03-18T13:47:05.508Z,65
2016-03-18T13:48:05.511Z,65
2016-03-18T13:49:05.529Z,65
2016-03-18T13:50:05.531Z,65
2016-03-18T13:51:05.534Z,65
2016-03-18T13:52:05.537Z,65
2016-03-18T13:53:05.540Z,65
2016-03-18T13:54:05.528Z,65
2016-03-18T13:55:05.670Z,65
2016-03-18T13:56:05.533Z,65
2016-03-18T13:57:05.551Z,65
2016-03-18T13:58:05.586Z,65
2016-03-18T13:59:05.541Z,65
2016-03-18T14:00:05.559Z,65
2016-03-18T14:01:05.547Z,65
2016-03-18T14:02:05.564Z,65
2016-03-18T14:03:05.567Z,65
2016-03-18T14:04:05.570Z,65
2016-03-18T14:05:05.557Z,65
2016-03-18T14:06:05.575Z,65
2016-03-18T14:07:05.563Z,65
2016-03-18T14:08:05.549Z,65
2016-03-18T14:09:05.568Z,65
2016-03-18T14:10:05.743Z,65
2016-03-18T14:11:05.604Z,65
2016-03-18T14:12:05.576Z,65
2016-03-18T14:13:05.578Z,65
2016-03-18T14:14:05.581Z,65
2016-03-18T14:15:05.584Z,65
2016-03-18T14:16:05.571Z,65
2016-03-18T14:17:05.573Z,65